Aérodrome :
LOGIN :

S'inscrire | Disclaimer

   EN    FR    IT 

 










Légende :    VFR   VFR Marginal   IFR   IFR Intensif   IFR Très Intensif
Visi : 
Plafond : 
>= 8 km
>= 3000ft
5 à 8 km
1000 à 3000 ft
1500m à 5 km
500 à 1000 ft
800 à 1500m
200 à 500 ft
< 800m
< 200 ft
Symboles :   Orages  Brouillard  Fortes neiges  Fortes précipitations  Vent > 20 kt
SIGMETs :   Divers  Orages  Givrage  Turbulence  Onde Orograph.  Cendres Volcan.







- Altitude de l'aérodrome : 28 ft
- Code IATA : SOZ
- Voir les cartes d'approche


LFKS - Solenzara

DERNIER METAR :
  • 212230Z AUTO 27004KT CAVOK 24/21 Q1012

METARs EXPIRÉS :
  • 212200Z AUTO VRB02KT 9999 FEW010 25/21 Q1011
  • 212130Z AUTO VRB02KT 9999 BKN010 BKN017 BKN028 25/23 Q1011
  • 212100Z AUTO 00000KT 9999 FEW009 BKN029 25/23 Q1011
  • 212030Z AUTO VRB02KT 9999 BKN010 OVC018 26/23 Q1011
  • 212000Z AUTO 18003KT 9999 BKN012 BKN021 25/23 Q1011
  • 211930Z AUTO 16004KT 9999 BKN011 26/23 Q1011

TAF TAF LFKS
Valide du 21 à 15h jusqu'au 22 à 15h UTC


211400Z 2115/2215 13010KT 9999 FEW020 SCT030
BECMG 2119/2121 27003KT
Pas de NOTAMs connus pour ce terrain.



MET'MAP, la Météo Aéronautique d'un coup d'oeil ! - Copyright ORBIFLY Décembre 2007 - Disclaimer

ORBIFLY MET'MAP TEAM :

Programmation & Développement : Alexandra Zaïnal
Conception & Développement : Baudouin d'Aumeries
Co-Programmation & Développement : Marc-Olivier Méhu
Soutien technique & logistique : Manuel Goepfert

Contact : metmap@orbifly.com




SOURCES & CREDITS :

   NOAA